createdAt,value
2018-01-16T00:00:49.637Z,6.37
2018-01-16T00:01:48.894Z,6.36
2018-01-16T00:02:49.851Z,6.37
2018-01-16T00:03:49.257Z,6.35
2018-01-16T00:04:49.624Z,6.36
2018-01-16T00:05:49.567Z,6.37
2018-01-16T00:06:48.786Z,6.37
2018-01-16T00:07:48.789Z,6.4
2018-01-16T00:08:48.993Z,6.4
2018-01-16T00:09:49.112Z,6.41
2018-01-16T00:10:49.847Z,6.4
2018-01-16T00:11:48.726Z,6.39
2018-01-16T00:12:48.903Z,6.41
2018-01-16T00:13:48.898Z,6.41
2018-01-16T00:14:48.902Z,6.43
2018-01-16T00:15:48.888Z,6.46
2018-01-16T00:16:48.823Z,6.46
2018-01-16T00:17:48.853Z,6.44
2018-01-16T00:18:48.962Z,6.43
2018-01-16T00:19:48.856Z,6.44
2018-01-16T00:20:49.001Z,6.46
2018-01-16T00:21:48.947Z,6.48
2018-01-16T00:22:48.848Z,6.5
2018-01-16T00:23:49.102Z,6.51
2018-01-16T00:24:48.842Z,6.47
2018-01-16T00:25:48.964Z,6.46
2018-01-16T00:26:48.980Z,6.47
2018-01-16T00:27:48.900Z,6.48
2018-01-16T00:28:48.871Z,6.48
2018-01-16T00:29:48.903Z,6.53
2018-01-16T00:30:47.951Z,6.56
2018-01-16T00:31:47.927Z,6.54
2018-01-16T00:32:47.920Z,6.54
2018-01-16T00:36:00.995Z,6.51
2018-01-16T00:36:47.981Z,6.54
2018-01-16T00:37:47.948Z,6.56
2018-01-16T00:38:48.012Z,6.6
2018-01-16T00:39:48.037Z,6.61
2018-01-16T00:40:48.149Z,6.6
2018-01-16T00:41:48.067Z,6.6
2018-01-16T00:42:48.056Z,6.61
2018-01-16T00:43:48.081Z,6.61
2018-01-16T00:44:47.929Z,6.64
2018-01-16T00:45:47.991Z,6.67
2018-01-16T00:46:47.971Z,6.7
2018-01-16T00:47:47.902Z,6.71
2018-01-16T00:48:48.035Z,6.67
2018-01-16T00:49:47.930Z,6.71
2018-01-16T00:50:47.968Z,6.71
2018-01-16T00:51:48.015Z,6.71
2018-01-16T00:52:47.930Z,6.71
2018-01-16T00:53:48.034Z,6.75
2018-01-16T00:54:48.103Z,6.73
2018-01-16T00:55:47.924Z,6.74
2018-01-16T00:56:47.885Z,6.73
2018-01-16T00:57:47.949Z,6.77
2018-01-16T00:58:48.057Z,6.73
2018-01-16T00:59:47.987Z,6.74
2018-01-16T01:00:48.180Z,6.74
2018-01-16T01:01:47.988Z,6.75
2018-01-16T01:02:47.972Z,6.77
2018-01-16T01:03:47.989Z,6.75
2018-01-16T01:04:48.753Z,6.75
2018-01-16T01:05:48.156Z,6.77
2018-01-16T01:06:48.011Z,6.78
2018-01-16T01:07:48.104Z,6.78
2018-01-16T01:08:47.927Z,6.8
2018-01-16T01:09:48.148Z,6.83
2018-01-16T01:10:47.972Z,6.84
2018-01-16T01:11:47.933Z,6.81
2018-01-16T01:12:48.009Z,6.83
2018-01-16T01:13:47.947Z,6.81
2018-01-16T01:14:48.103Z,6.84
2018-01-16T01:15:48.104Z,6.9
2018-01-16T01:16:48.174Z,6.85
2018-01-16T01:17:48.126Z,6.85
2018-01-16T01:18:47.858Z,6.81
2018-01-16T01:19:48.099Z,6.83
2018-01-16T01:20:48.057Z,6.81
2018-01-16T01:21:47.899Z,6.81
2018-01-16T01:22:47.986Z,6.84
2018-01-16T01:23:47.923Z,6.88
2018-01-16T01:24:48.000Z,6.87
2018-01-16T01:25:48.131Z,6.85
2018-01-16T01:26:48.011Z,6.87
2018-01-16T01:27:47.959Z,6.87
2018-01-16T01:28:47.865Z,6.85
2018-01-16T01:29:47.961Z,6.8
2018-01-16T01:30:47.932Z,6.8
2018-01-16T01:31:48.352Z,6.83
2018-01-16T01:32:48.047Z,6.81
2018-01-16T01:33:48.094Z,6.83
2018-01-16T01:34:47.857Z,6.83
2018-01-16T01:35:48.134Z,6.81
2018-01-16T01:36:47.978Z,6.85
2018-01-16T01:37:48.211Z,6.84
2018-01-16T01:38:47.924Z,6.84
2018-01-16T01:39:47.997Z,6.88
2018-01-16T01:40:48.142Z,6.84
2018-01-16T01:41:47.992Z,6.85
2018-01-16T01:42:48.089Z,6.85
2018-01-16T01:43:48.014Z,6.91
2018-01-16T01:44:48.058Z,6.95
2018-01-16T01:47:58.647Z,7.02
2018-01-16T01:48:48.294Z,7.02
2018-01-16T01:49:47.969Z,7.03
2018-01-16T01:50:48.010Z,7.06
2018-01-16T01:51:48.065Z,7.09
2018-01-16T01:52:48.004Z,7.09
2018-01-16T01:53:47.951Z,7.09
2018-01-16T01:54:47.956Z,7.16
2018-01-16T01:55:47.918Z,7.15
2018-01-16T01:56:47.957Z,7.15
2018-01-16T01:57:47.958Z,7.16
2018-01-16T01:58:48.045Z,7.12
2018-01-16T01:59:48.239Z,7.13
2018-01-16T02:00:48.196Z,7.15
2018-01-16T02:01:47.984Z,7.12
2018-01-16T02:02:48.071Z,7.16
2018-01-16T02:03:48.084Z,7.16
2018-01-16T02:04:48.053Z,7.16
2018-01-16T02:05:48.073Z,7.2
2018-01-16T02:06:47.948Z,7.2
2018-01-16T02:07:47.927Z,7.22
2018-01-16T02:08:47.950Z,7.18
2018-01-16T02:09:48.130Z,7.22
2018-01-16T02:10:48.005Z,7.22
2018-01-16T02:11:48.078Z,7.19
2018-01-16T02:12:48.050Z,7.19
2018-01-16T02:13:48.063Z,7.15
2018-01-16T02:14:48.076Z,7.18
2018-01-16T02:15:48.029Z,7.16
2018-01-16T02:16:48.125Z,7.18
2018-01-16T02:17:48.044Z,7.19
2018-01-16T02:18:47.896Z,7.22
2018-01-16T02:19:48.110Z,7.23
2018-01-16T02:20:48.053Z,7.27
2018-01-16T02:21:47.908Z,7.27
2018-01-16T02:22:48.058Z,7.24
2018-01-16T02:23:48.089Z,7.2
2018-01-16T02:24:48.050Z,7.22
2018-01-16T02:25:48.039Z,7.22
2018-01-16T02:26:48.135Z,7.2
2018-01-16T02:27:48.093Z,7.2
2018-01-16T02:28:48.131Z,7.16
2018-01-16T02:29:48.085Z,7.18
2018-01-16T02:30:48.157Z,7.16
2018-01-16T02:31:48.079Z,7.18
2018-01-16T02:32:48.046Z,7.18
2018-01-16T02:33:48.092Z,7.16
2018-01-16T02:34:48.084Z,7.18
2018-01-16T02:35:48.097Z,7.16
2018-01-16T02:36:48.012Z,7.15
2018-01-16T02:37:48.030Z,7.16
2018-01-16T02:38:48.128Z,7.18
2018-01-16T02:39:48.040Z,7.22
2018-01-16T02:40:48.161Z,7.19
2018-01-16T02:41:48.301Z,7.2
2018-01-16T02:42:48.176Z,7.19
2018-01-16T02:43:48.016Z,7.22
2018-01-16T02:44:48.070Z,7.22
2018-01-16T02:45:48.078Z,7.22
2018-01-16T02:46:48.213Z,7.23
2018-01-16T02:47:48.094Z,7.29
2018-01-16T02:48:47.960Z,7.23
2018-01-16T02:49:47.906Z,7.23
2018-01-16T02:50:48.205Z,7.23
2018-01-16T02:51:48.026Z,7.23
2018-01-16T02:52:48.213Z,7.24
2018-01-16T02:53:48.118Z,7.24
2018-01-16T02:54:48.117Z,7.23
2018-01-16T02:55:48.056Z,7.22
2018-01-16T02:56:48.085Z,7.22
2018-01-16T02:57:48.111Z,7.22
2018-01-16T02:58:48.026Z,7.19
2018-01-16T02:59:48.135Z,7.19
2018-01-16T03:00:48.289Z,7.18
2018-01-16T03:01:48.193Z,7.16
2018-01-16T03:02:48.123Z,7.15
2018-01-16T03:03:48.117Z,7.15
2018-01-16T03:04:48.219Z,7.13
2018-01-16T03:05:48.301Z,7.11
2018-01-16T03:06:48.105Z,7.09
2018-01-16T03:07:48.172Z,7.08
2018-01-16T03:08:48.210Z,7.06
2018-01-16T03:09:48.101Z,7.06
2018-01-16T03:10:48.140Z,7.05
2018-01-16T03:11:48.101Z,7.03
2018-01-16T03:12:48.270Z,7.05
2018-01-16T03:13:48.175Z,7.06
2018-01-16T03:14:48.156Z,7.03
2018-01-16T03:15:48.036Z,7.03
2018-01-16T03:16:48.302Z,7.02
2018-01-16T03:17:48.080Z,7.02
2018-01-16T03:18:48.186Z,6.99
2018-01-16T03:19:48.007Z,6.98
2018-01-16T03:20:48.148Z,6.96
2018-01-16T03:21:48.070Z,6.95
2018-01-16T03:22:48.220Z,6.96
2018-01-16T03:23:48.181Z,6.94
2018-01-16T03:24:48.017Z,6.95
2018-01-16T03:25:48.189Z,6.95
2018-01-16T03:26:47.967Z,6.94
2018-01-16T03:27:48.305Z,6.91
2018-01-16T03:28:48.230Z,6.92
2018-01-16T03:29:48.181Z,6.91
2018-01-16T03:30:48.160Z,6.9
2018-01-16T03:31:48.200Z,6.91
2018-01-16T03:32:48.217Z,6.9
2018-01-16T03:33:48.192Z,6.87
2018-01-16T03:34:48.164Z,6.85
2018-01-16T03:35:48.226Z,6.87
2018-01-16T03:36:48.252Z,6.87
2018-01-16T03:37:48.240Z,6.83
2018-01-16T03:38:48.324Z,6.87
2018-01-16T03:39:48.267Z,6.87
2018-01-16T03:40:48.175Z,6.84
2018-01-16T03:41:48.211Z,6.84
2018-01-16T03:42:48.089Z,6.85
2018-01-16T03:43:48.263Z,6.84
2018-01-16T03:44:48.190Z,6.84
2018-01-16T03:45:48.153Z,6.84
2018-01-16T03:46:48.147Z,6.85
2018-01-16T03:47:48.096Z,6.88
2018-01-16T03:48:48.228Z,6.85
2018-01-16T03:49:48.415Z,6.87
2018-01-16T03:50:48.316Z,6.84
2018-01-16T03:51:48.073Z,6.84
2018-01-16T03:52:48.971Z,6.83
2018-01-16T03:53:48.045Z,6.83
2018-01-16T03:54:48.144Z,6.81
2018-01-16T03:55:48.604Z,6.84
2018-01-16T03:56:48.278Z,6.81
2018-01-16T03:57:48.320Z,6.81
2018-01-16T03:58:48.270Z,6.81
2018-01-16T03:59:48.383Z,6.81
2018-01-16T04:00:49.157Z,6.84
2018-01-16T04:01:49.151Z,6.83
2018-01-16T04:02:49.130Z,6.81
2018-01-16T04:03:48.322Z,6.84
2018-01-16T04:04:48.074Z,6.84
2018-01-16T04:05:48.081Z,6.85
2018-01-16T04:06:48.325Z,6.84
2018-01-16T04:07:48.119Z,6.87
2018-01-16T04:08:48.191Z,6.9
2018-01-16T04:09:48.140Z,6.88
2018-01-16T04:10:48.273Z,6.88
2018-01-16T04:11:48.129Z,6.87
2018-01-16T04:12:48.293Z,6.88
2018-01-16T04:13:48.395Z,6.87
2018-01-16T04:14:48.194Z,6.9
2018-01-16T04:15:48.264Z,6.87
2018-01-16T04:16:48.160Z,6.85
2018-01-16T04:17:48.325Z,6.92
2018-01-16T04:18:48.333Z,6.91
2018-01-16T04:19:48.224Z,6.95
2018-01-16T04:20:48.254Z,6.92
2018-01-16T04:21:48.318Z,6.94
2018-01-16T04:22:48.227Z,6.91
2018-01-16T04:23:48.200Z,6.91
2018-01-16T04:24:48.205Z,6.92
2018-01-16T04:25:48.195Z,6.94
2018-01-16T04:26:48.072Z,6.91
2018-01-16T04:27:48.357Z,6.92
2018-01-16T04:28:48.112Z,6.95
2018-01-16T04:29:48.145Z,6.92
2018-01-16T04:30:48.027Z,6.95
2018-01-16T04:31:48.197Z,6.96
2018-01-16T04:32:48.333Z,6.96
2018-01-16T04:33:48.326Z,6.98
2018-01-16T04:34:48.230Z,6.98
2018-01-16T04:35:48.156Z,6.95
2018-01-16T04:36:48.259Z,6.96
2018-01-16T04:37:48.204Z,6.96
2018-01-16T04:38:48.333Z,6.99
2018-01-16T04:39:48.338Z,6.98
2018-01-16T04:40:48.280Z,6.99
2018-01-16T04:41:48.118Z,7.01
2018-01-16T04:42:48.433Z,7.02
2018-01-16T04:43:48.398Z,7.01
2018-01-16T04:44:48.183Z,6.99
2018-01-16T04:45:48.292Z,7.01
2018-01-16T04:46:48.207Z,6.99
2018-01-16T04:47:48.251Z,6.99
2018-01-16T04:48:48.325Z,7.02
2018-01-16T04:49:48.285Z,7.02
2018-01-16T04:50:48.574Z,6.99
2018-01-16T04:51:48.220Z,7.01
2018-01-16T04:52:48.374Z,6.98
2018-01-16T04:53:48.248Z,7.03
2018-01-16T04:54:48.225Z,7.01
2018-01-16T04:55:48.282Z,7.03
2018-01-16T04:56:48.118Z,7.03
2018-01-16T04:57:48.470Z,7.02
2018-01-16T04:58:48.164Z,6.98
2018-01-16T04:59:48.122Z,6.98
2018-01-16T05:00:48.233Z,7.01
2018-01-16T05:01:48.187Z,6.99
2018-01-16T05:02:48.311Z,7.02
2018-01-16T05:03:48.241Z,6.99
2018-01-16T05:04:48.307Z,6.99
2018-01-16T05:05:48.288Z,7.02
2018-01-16T05:06:48.271Z,7.01
2018-01-16T05:07:48.274Z,6.99
2018-01-16T05:08:48.368Z,7.01
2018-01-16T05:09:48.320Z,7.02
2018-01-16T05:10:48.395Z,7.02
2018-01-16T05:11:48.241Z,6.98
2018-01-16T05:12:48.159Z,6.99
2018-01-16T05:13:48.182Z,6.99
2018-01-16T05:14:48.357Z,6.99
2018-01-16T05:15:48.281Z,6.99
2018-01-16T05:16:48.291Z,6.95
2018-01-16T05:17:48.229Z,6.96
2018-01-16T05:18:48.221Z,6.95
2018-01-16T05:19:48.459Z,6.94
2018-01-16T05:20:48.421Z,6.94
2018-01-16T05:21:48.237Z,6.94
2018-01-16T05:22:48.241Z,6.94
2018-01-16T05:23:48.234Z,6.92
2018-01-16T05:24:48.254Z,6.92
2018-01-16T05:25:48.393Z,6.91
2018-01-16T05:26:48.382Z,6.95
2018-01-16T05:27:48.263Z,6.91
2018-01-16T05:28:48.241Z,6.91
2018-01-16T05:29:48.259Z,6.91
2018-01-16T05:30:48.312Z,6.9
2018-01-16T05:31:48.275Z,6.9
2018-01-16T05:32:48.161Z,6.88
2018-01-16T05:33:48.421Z,6.88
2018-01-16T05:34:48.440Z,6.91
2018-01-16T05:35:48.191Z,6.87
2018-01-16T05:36:48.268Z,6.87
2018-01-16T05:37:48.316Z,6.88
2018-01-16T05:38:48.202Z,6.88
2018-01-16T05:39:48.324Z,6.87
2018-01-16T05:40:48.299Z,6.88
2018-01-16T05:41:48.427Z,6.85
2018-01-16T05:42:48.301Z,6.87
2018-01-16T05:43:48.242Z,6.84
2018-01-16T05:44:48.245Z,6.84
2018-01-16T05:45:48.321Z,6.83
2018-01-16T05:46:48.361Z,6.85
2018-01-16T05:47:48.238Z,6.85
2018-01-16T05:48:48.135Z,6.84
2018-01-16T05:49:48.347Z,6.83
2018-01-16T05:50:48.187Z,6.83
2018-01-16T05:51:48.497Z,6.83
2018-01-16T05:52:48.207Z,6.84
2018-01-16T05:53:48.259Z,6.83
2018-01-16T05:54:48.358Z,6.81
2018-01-16T05:55:48.286Z,6.83
2018-01-16T05:56:48.261Z,6.81
2018-01-16T05:57:48.315Z,6.87
2018-01-16T05:58:48.296Z,6.85
2018-01-16T05:59:48.405Z,6.85
2018-01-16T06:00:48.264Z,6.83
2018-01-16T06:01:48.218Z,6.87
2018-01-16T06:02:48.608Z,6.83
2018-01-16T06:03:48.288Z,6.85
2018-01-16T06:04:48.442Z,6.84
2018-01-16T06:05:48.440Z,6.85
2018-01-16T06:06:48.539Z,6.84
2018-01-16T06:07:48.423Z,6.88
2018-01-16T06:08:48.420Z,6.85
2018-01-16T06:09:48.372Z,6.83
2018-01-16T06:10:48.423Z,6.84
2018-01-16T06:11:48.306Z,6.84
2018-01-16T06:12:48.333Z,6.83
2018-01-16T06:13:48.514Z,6.83
2018-01-16T06:14:48.252Z,6.83
2018-01-16T06:15:48.390Z,6.83
2018-01-16T06:16:48.310Z,6.84
2018-01-16T06:17:48.215Z,6.84
2018-01-16T06:18:48.564Z,6.84
2018-01-16T06:19:48.379Z,6.83
2018-01-16T06:20:48.371Z,6.81
2018-01-16T06:21:48.481Z,6.81
2018-01-16T06:22:48.394Z,6.8
2018-01-16T06:23:48.479Z,6.84
2018-01-16T06:24:48.478Z,6.84
2018-01-16T06:25:48.330Z,6.83
2018-01-16T06:26:48.343Z,6.83
2018-01-16T06:27:48.239Z,6.81
2018-01-16T06:28:48.286Z,6.78
2018-01-16T06:29:48.426Z,6.83
2018-01-16T06:30:48.491Z,6.8
2018-01-16T06:31:48.515Z,6.84
2018-01-16T06:32:48.387Z,6.8
2018-01-16T06:33:48.440Z,6.81
2018-01-16T06:34:48.464Z,6.8
2018-01-16T06:35:48.877Z,6.81
2018-01-16T06:36:48.312Z,6.83
2018-01-16T06:37:48.347Z,6.83
2018-01-16T06:38:48.531Z,6.83
2018-01-16T06:39:48.248Z,6.85
2018-01-16T06:40:48.367Z,6.85
2018-01-16T06:41:48.499Z,6.84
2018-01-16T06:42:48.449Z,6.84
2018-01-16T06:43:48.402Z,6.8
2018-01-16T06:44:48.259Z,6.85
2018-01-16T06:45:48.421Z,6.84
2018-01-16T06:46:48.311Z,6.84
2018-01-16T06:47:48.545Z,6.83
2018-01-16T06:48:48.396Z,6.84
2018-01-16T06:49:48.417Z,6.84
2018-01-16T06:50:48.426Z,6.84
2018-01-16T06:51:48.306Z,6.84
2018-01-16T06:52:48.476Z,6.83
2018-01-16T06:53:48.543Z,6.84
2018-01-16T06:54:48.415Z,6.83
2018-01-16T06:55:48.472Z,6.87
2018-01-16T06:56:48.771Z,6.84
2018-01-16T06:57:48.223Z,6.84
2018-01-16T06:58:48.404Z,6.84
2018-01-16T06:59:48.396Z,6.84
2018-01-16T07:00:48.465Z,6.84
2018-01-16T07:01:48.346Z,6.84
2018-01-16T07:02:48.432Z,6.85
2018-01-16T07:03:48.559Z,6.87
2018-01-16T07:04:48.332Z,6.88
2018-01-16T07:05:48.451Z,6.88
2018-01-16T07:06:48.378Z,6.85
2018-01-16T07:07:48.486Z,6.85
2018-01-16T07:08:48.526Z,6.85
2018-01-16T07:09:48.417Z,6.87
2018-01-16T07:10:48.538Z,6.87
2018-01-16T07:11:48.490Z,6.87
2018-01-16T07:12:48.448Z,6.87
2018-01-16T07:13:48.567Z,6.88
2018-01-16T07:14:48.441Z,6.91
2018-01-16T07:15:48.441Z,6.88
2018-01-16T07:16:48.679Z,6.9
2018-01-16T07:17:48.407Z,6.9
2018-01-16T07:18:48.516Z,6.88
2018-01-16T07:19:48.608Z,6.92
2018-01-16T07:20:48.450Z,6.92
2018-01-16T07:21:48.865Z,6.92
2018-01-16T07:22:48.510Z,6.91
2018-01-16T07:23:48.557Z,6.91
2018-01-16T07:24:48.353Z,6.9
2018-01-16T07:25:48.520Z,6.9
2018-01-16T07:26:48.446Z,6.9
2018-01-16T07:27:48.439Z,6.85
2018-01-16T07:28:48.338Z,6.87
2018-01-16T07:29:48.420Z,6.88
2018-01-16T07:30:48.440Z,6.9
2018-01-16T07:31:48.745Z,6.88
2018-01-16T07:32:48.475Z,6.88
2018-01-16T07:33:48.632Z,6.85
2018-01-16T07:34:48.522Z,6.88
2018-01-16T07:35:48.503Z,6.9
2018-01-16T07:36:48.640Z,6.88
2018-01-16T07:37:48.463Z,6.88
2018-01-16T07:38:48.587Z,6.88
2018-01-16T07:39:48.593Z,6.9
2018-01-16T07:40:48.609Z,6.88
2018-01-16T07:41:48.503Z,6.91
2018-01-16T07:42:48.708Z,6.88
2018-01-16T07:43:48.482Z,6.9
2018-01-16T07:44:48.891Z,6.9
2018-01-16T07:45:48.488Z,6.92
2018-01-16T07:46:48.651Z,6.94
2018-01-16T07:47:48.494Z,6.96
2018-01-16T07:48:48.905Z,6.95
2018-01-16T07:49:48.527Z,6.99
2018-01-16T07:50:48.508Z,7.01
2018-01-16T07:51:48.392Z,7.01
2018-01-16T07:52:48.593Z,7.02
2018-01-16T07:53:48.593Z,7.05
2018-01-16T07:54:48.523Z,7.05
2018-01-16T07:55:48.446Z,7.06
2018-01-16T07:56:48.472Z,7.06
2018-01-16T07:57:48.578Z,7.11
2018-01-16T07:58:48.585Z,7.09
2018-01-16T07:59:48.714Z,7.11
2018-01-16T08:00:48.464Z,7.13
2018-01-16T08:01:48.530Z,7.12
2018-01-16T08:02:48.442Z,7.11
2018-01-16T08:03:49.172Z,7.08
2018-01-16T08:04:48.056Z,7.06
2018-01-16T08:05:48.121Z,7.06
2018-01-16T08:06:48.049Z,7.05
2018-01-16T08:07:48.018Z,7.02
2018-01-16T08:08:48.076Z,7.02
2018-01-16T08:09:48.106Z,6.98
2018-01-16T08:10:48.207Z,6.98
2018-01-16T08:11:48.008Z,6.95
2018-01-16T08:12:48.206Z,6.95
2018-01-16T08:13:47.956Z,6.94
2018-01-16T08:14:48.158Z,6.88
2018-01-16T08:15:48.031Z,6.91
2018-01-16T08:16:48.033Z,6.88
2018-01-16T08:17:47.959Z,6.87
2018-01-16T08:18:47.951Z,6.87
2018-01-16T08:19:47.998Z,6.85
2018-01-16T08:20:47.961Z,6.87
2018-01-16T08:21:47.952Z,6.84
2018-01-16T08:22:48.113Z,6.81
2018-01-16T08:23:47.973Z,6.81
2018-01-16T08:24:47.969Z,6.8
2018-01-16T08:25:47.974Z,6.78
2018-01-16T08:26:47.892Z,6.78
2018-01-16T08:27:48.477Z,6.8
2018-01-16T08:28:47.949Z,6.77
2018-01-16T08:29:48.163Z,6.75
2018-01-16T08:30:49.405Z,6.77
2018-01-16T08:31:48.128Z,6.74
2018-01-16T08:32:48.056Z,6.74
2018-01-16T08:33:48.129Z,6.74
2018-01-16T08:34:48.242Z,6.74
2018-01-16T08:35:48.180Z,6.71
2018-01-16T08:36:48.136Z,6.71
2018-01-16T08:37:48.043Z,6.71
2018-01-16T08:38:48.159Z,6.7
2018-01-16T08:39:47.976Z,6.68
2018-01-16T08:40:48.160Z,6.7
2018-01-16T08:41:48.202Z,6.7
2018-01-16T08:42:48.410Z,6.7
2018-01-16T08:43:48.042Z,6.73
2018-01-16T08:44:48.031Z,6.71
2018-01-16T08:45:48.050Z,6.7
2018-01-16T08:46:47.876Z,6.71
2018-01-16T08:47:48.202Z,6.7
2018-01-16T08:48:47.899Z,6.71
2018-01-16T08:49:48.161Z,6.71
2018-01-16T08:50:48.100Z,6.73
2018-01-16T08:51:48.057Z,6.68
2018-01-16T08:52:48.071Z,6.71
2018-01-16T08:53:48.196Z,6.71
2018-01-16T08:54:48.077Z,6.71
2018-01-16T08:55:48.135Z,6.68
2018-01-16T08:56:48.261Z,6.73
2018-01-16T08:57:48.098Z,6.74
2018-01-16T08:58:48.009Z,6.74
2018-01-16T08:59:48.236Z,6.77
2018-01-16T09:00:48.072Z,6.75
2018-01-16T09:01:48.012Z,6.75
2018-01-16T09:02:47.990Z,6.78
2018-01-16T09:03:47.933Z,6.81
2018-01-16T09:04:48.440Z,6.85
2018-01-16T09:05:48.266Z,6.92
2018-01-16T09:06:48.171Z,6.95
2018-01-16T09:07:48.114Z,6.96
2018-01-16T09:08:48.264Z,6.98
2018-01-16T09:09:48.387Z,7.01
2018-01-16T09:10:48.216Z,7.05
2018-01-16T09:11:48.171Z,7.08
2018-01-16T09:12:48.308Z,7.15
2018-01-16T09:13:48.390Z,7.19
2018-01-16T09:14:48.205Z,7.23
2018-01-16T09:15:48.142Z,7.29
2018-01-16T09:16:48.230Z,7.39
2018-01-16T09:17:48.214Z,7.44
2018-01-16T09:18:48.543Z,7.55
2018-01-16T09:19:48.291Z,7.58
2018-01-16T09:20:48.261Z,7.62
2018-01-16T09:21:48.323Z,7.64
2018-01-16T09:22:48.245Z,7.61
2018-01-16T09:23:48.343Z,7.59
2018-01-16T09:24:48.218Z,7.62
2018-01-16T09:25:48.098Z,7.65
2018-01-16T09:26:48.195Z,7.69
2018-01-16T09:27:48.304Z,7.69
2018-01-16T09:28:48.423Z,7.75
2018-01-16T09:29:47.973Z,7.75
2018-01-16T09:30:48.155Z,7.77
2018-01-16T09:31:48.232Z,7.74
2018-01-16T09:32:48.199Z,7.75
2018-01-16T09:33:48.310Z,7.77
2018-01-16T09:34:48.351Z,7.77
2018-01-16T09:35:48.311Z,7.77
2018-01-16T09:36:48.263Z,7.72
2018-01-16T09:37:48.337Z,7.72
2018-01-16T09:38:48.401Z,7.71
2018-01-16T09:39:48.304Z,7.72
2018-01-16T09:40:48.283Z,7.75
2018-01-16T09:41:48.199Z,7.77
2018-01-16T09:42:48.293Z,7.78
2018-01-16T09:43:48.413Z,7.78
2018-01-16T09:44:48.585Z,7.81
2018-01-16T09:45:50.219Z,7.84
2018-01-16T09:46:48.208Z,7.89
2018-01-16T09:47:48.227Z,7.91
2018-01-16T09:48:48.142Z,7.88
2018-01-16T09:49:48.363Z,7.95
2018-01-16T09:50:48.314Z,7.96
2018-01-16T09:51:48.150Z,8.01
2018-01-16T09:52:48.134Z,7.96
2018-01-16T09:53:48.214Z,7.99
2018-01-16T09:54:48.219Z,7.98
2018-01-16T09:55:48.474Z,7.96
2018-01-16T09:56:48.332Z,7.93
2018-01-16T09:57:48.418Z,7.96
2018-01-16T09:58:48.416Z,7.98
2018-01-16T09:59:48.295Z,7.96
2018-01-16T10:00:48.326Z,7.96
2018-01-16T10:01:48.296Z,7.93
2018-01-16T10:02:48.236Z,7.95
2018-01-16T10:03:48.400Z,7.98
2018-01-16T10:04:48.364Z,7.98
2018-01-16T10:05:48.555Z,7.95
2018-01-16T10:06:48.512Z,7.91
2018-01-16T10:07:48.313Z,7.95
2018-01-16T10:08:48.308Z,7.95
2018-01-16T10:09:48.408Z,7.98
2018-01-16T10:10:48.477Z,8.01
2018-01-16T10:11:48.423Z,8.01
2018-01-16T10:12:48.349Z,8.01
2018-01-16T10:13:48.478Z,7.99
2018-01-16T10:14:48.599Z,7.99
2018-01-16T10:15:48.687Z,7.95
2018-01-16T10:16:48.414Z,7.96
2018-01-16T10:17:48.524Z,7.95
2018-01-16T10:18:48.502Z,7.95
2018-01-16T10:19:48.595Z,7.98
2018-01-16T10:21:48.444Z,8.01
2018-01-16T10:22:48.540Z,8.01
2018-01-16T10:23:48.432Z,8.05
2018-01-16T10:24:48.494Z,8.03
2018-01-16T10:25:48.456Z,8.05
2018-01-16T10:26:48.614Z,8.01
2018-01-16T10:27:48.512Z,8.05
2018-01-16T10:28:48.531Z,8.06
2018-01-16T10:29:48.327Z,8.05
2018-01-16T10:30:48.667Z,8.05
2018-01-16T10:31:48.534Z,8.05
2018-01-16T10:32:48.441Z,8.05
2018-01-16T10:33:48.498Z,8.03
2018-01-16T10:34:48.769Z,8.1
2018-01-16T10:35:48.716Z,8.1
2018-01-16T10:36:48.760Z,8.09
2018-01-16T10:37:48.691Z,8.09
2018-01-16T10:38:49.111Z,8.08
2018-01-16T10:39:48.370Z,8.06
2018-01-16T10:40:48.507Z,8.08
2018-01-16T10:41:48.577Z,8.1
2018-01-16T10:42:48.471Z,8.08
2018-01-16T10:43:48.382Z,8.06
2018-01-16T10:44:48.314Z,8.1
2018-01-16T10:45:48.599Z,8.1
2018-01-16T10:46:48.509Z,8.1
2018-01-16T10:47:48.474Z,8.1
2018-01-16T10:48:48.483Z,8.14
2018-01-16T10:49:48.561Z,8.14
2018-01-16T10:50:48.610Z,8.19
2018-01-16T10:51:48.520Z,8.21
2018-01-16T10:52:48.483Z,8.21
2018-01-16T10:53:48.546Z,8.26
2018-01-16T10:54:48.558Z,8.31
2018-01-16T10:55:48.592Z,8.34
2018-01-16T10:56:48.670Z,8.34
2018-01-16T10:57:48.452Z,8.38
2018-01-16T10:58:48.588Z,8.43
2018-01-16T10:59:48.507Z,8.38
2018-01-16T11:00:48.647Z,8.41
2018-01-16T11:01:48.725Z,8.45
2018-01-16T11:02:48.609Z,8.52
2018-01-16T11:03:48.615Z,8.54
2018-01-16T11:04:48.781Z,8.59
2018-01-16T11:05:48.838Z,8.58
2018-01-16T11:06:48.620Z,8.55
2018-01-16T11:07:48.451Z,8.57
2018-01-16T11:08:48.571Z,8.52
2018-01-16T11:09:48.374Z,8.51
2018-01-16T11:10:48.570Z,8.51
2018-01-16T11:11:48.740Z,8.52
2018-01-16T11:12:48.634Z,8.54
2018-01-16T11:13:48.732Z,8.51
2018-01-16T11:14:48.436Z,8.52
2018-01-16T11:15:48.464Z,8.52
2018-01-16T11:16:48.568Z,8.48
2018-01-16T11:17:49.462Z,8.44
2018-01-16T11:18:48.558Z,8.38
2018-01-16T11:19:49.580Z,8.34
2018-01-16T11:20:50.024Z,8.26
2018-01-16T11:21:50.576Z,8.2
2018-01-16T11:22:49.193Z,8.1
2018-01-16T11:23:48.453Z,8.06
2018-01-16T11:24:48.705Z,7.98
2018-01-16T11:25:48.529Z,7.92
2018-01-16T11:26:48.873Z,7.85
2018-01-16T11:27:49.316Z,7.78
2018-01-16T11:28:48.730Z,7.8
2018-01-16T11:29:48.714Z,7.78
2018-01-16T11:30:50.211Z,7.78
2018-01-16T11:31:48.386Z,7.8
2018-01-16T11:32:49.615Z,7.8
2018-01-16T11:33:49.744Z,7.82
2018-01-16T11:34:51.661Z,7.8
2018-01-16T11:35:48.469Z,7.78
2018-01-16T11:36:49.186Z,7.81
2018-01-16T11:37:48.619Z,7.82
2018-01-16T11:38:49.391Z,7.82
2018-01-16T11:39:49.382Z,7.84
2018-01-16T11:40:49.765Z,7.85
2018-01-16T11:41:49.160Z,7.89
2018-01-16T11:42:50.178Z,7.92
2018-01-16T11:43:48.757Z,7.91
2018-01-16T11:44:48.651Z,7.89
2018-01-16T11:45:48.958Z,7.91
2018-01-16T11:46:48.406Z,7.91
2018-01-16T11:47:48.573Z,7.93
2018-01-16T11:48:49.266Z,7.92
2018-01-16T11:49:50.949Z,7.93
2018-01-16T11:50:49.160Z,7.92
2018-01-16T11:51:49.792Z,7.93
2018-01-16T11:52:50.651Z,7.95
2018-01-16T11:53:49.394Z,7.96
2018-01-16T11:54:49.802Z,7.98
2018-01-16T11:55:48.558Z,7.98
2018-01-16T11:56:49.944Z,7.98
2018-01-16T11:57:49.376Z,7.98
2018-01-16T11:58:48.649Z,8.01
2018-01-16T11:59:49.260Z,8.01
2018-01-16T12:00:48.683Z,8.05
2018-01-16T12:01:48.553Z,8.09
2018-01-16T12:02:48.611Z,8.08
2018-01-16T12:03:49.486Z,8.06
2018-01-16T12:04:48.811Z,8.06
2018-01-16T12:05:49.013Z,8.05
2018-01-16T12:06:49.197Z,8.1
2018-01-16T12:07:48.933Z,8.1
2018-01-16T12:08:50.474Z,8.12
2018-01-16T12:09:48.758Z,8.1
2018-01-16T12:10:48.933Z,8.13
2018-01-16T12:11:49.491Z,8.13
2018-01-16T12:12:48.612Z,8.16
2018-01-16T12:13:50.786Z,8.19
2018-01-16T12:14:51.183Z,8.23
2018-01-16T12:15:49.572Z,8.27
2018-01-16T12:16:49.245Z,8.21
2018-01-16T12:17:49.331Z,8.24
2018-01-16T12:18:48.818Z,8.21
2018-01-16T12:19:48.835Z,8.23
2018-01-16T12:20:49.912Z,8.24
2018-01-16T12:21:49.461Z,8.26
2018-01-16T12:22:49.387Z,8.21
2018-01-16T12:23:48.689Z,8.23
2018-01-16T12:24:48.769Z,8.24
2018-01-16T12:25:49.389Z,8.23
2018-01-16T12:26:49.341Z,8.24
2018-01-16T12:27:49.699Z,8.23
2018-01-16T12:28:49.672Z,8.23
2018-01-16T12:29:48.609Z,8.24
2018-01-16T12:30:51.781Z,8.29
2018-01-16T12:31:51.037Z,8.27
2018-01-16T12:32:49.662Z,8.27
2018-01-16T12:33:49.992Z,8.29
2018-01-16T12:34:48.912Z,8.29
2018-01-16T12:35:49.585Z,8.27
2018-01-16T12:36:49.525Z,8.3
2018-01-16T12:37:50.874Z,8.29
2018-01-16T12:38:49.679Z,8.33
2018-01-16T12:39:48.914Z,8.31
2018-01-16T12:40:52.194Z,8.3
2018-01-16T12:41:49.486Z,8.27
2018-01-16T12:42:49.599Z,8.27
2018-01-16T12:43:49.112Z,8.26
2018-01-16T12:44:50.964Z,8.27
2018-01-16T12:45:48.954Z,8.27
2018-01-16T12:46:48.635Z,8.26
2018-01-16T12:47:49.792Z,8.24
2018-01-16T12:48:49.022Z,8.24
2018-01-16T12:49:49.474Z,8.2
2018-01-16T12:50:48.836Z,8.23
2018-01-16T12:51:48.976Z,8.23
2018-01-16T12:52:50.131Z,8.26
2018-01-16T12:53:48.709Z,8.24
2018-01-16T12:54:48.635Z,8.26
2018-01-16T12:55:51.321Z,8.27
2018-01-16T12:56:50.226Z,8.26
2018-01-16T12:57:48.822Z,8.24
2018-01-16T12:58:48.729Z,8.23
2018-01-16T12:59:50.022Z,8.24
2018-01-16T13:00:50.264Z,8.24
2018-01-16T13:01:48.718Z,8.29
2018-01-16T13:02:49.046Z,8.29
2018-01-16T13:03:48.827Z,8.26
2018-01-16T13:04:49.114Z,8.27
2018-01-16T13:05:48.971Z,8.29
2018-01-16T13:06:49.146Z,8.27
2018-01-16T13:07:49.117Z,8.27
2018-01-16T13:08:48.910Z,8.29
2018-01-16T13:09:49.233Z,8.29
2018-01-16T13:10:48.673Z,8.27
2018-01-16T13:11:49.976Z,8.27
2018-01-16T13:12:48.946Z,8.31
2018-01-16T13:13:49.051Z,8.3
2018-01-16T13:14:48.932Z,8.31
2018-01-16T13:15:49.230Z,8.31
2018-01-16T13:16:48.907Z,8.29
2018-01-16T13:17:49.307Z,8.29
2018-01-16T13:18:49.058Z,8.3
2018-01-16T13:19:49.069Z,8.3
2018-01-16T13:20:48.918Z,8.34
2018-01-16T13:21:49.208Z,8.33
2018-01-16T13:22:48.910Z,8.34
2018-01-16T13:23:48.722Z,8.33
2018-01-16T13:24:50.022Z,8.38
2018-01-16T13:25:49.684Z,8.36